sensor_id;sensor_type;location;lat;lon;timestamp;pressure;altitude;pressure_sealevel;temperature;humidity
29331;BME280;16331;52.528;13.342;2022-10-15T00:02:14;159730.97;;;14.65;100.00
29331;BME280;16331;52.528;13.342;2022-10-15T00:04:40;159764.03;;;14.77;100.00
29331;BME280;16331;52.528;13.342;2022-10-15T00:07:07;159772.28;;;14.80;100.00
29331;BME280;16331;52.528;13.342;2022-10-15T00:09:33;159772.28;;;14.80;100.00
29331;BME280;16331;52.528;13.342;2022-10-15T00:11:59;159761.31;;;14.76;100.00
29331;BME280;16331;52.528;13.342;2022-10-15T00:14:25;159761.31;;;14.76;100.00
29331;BME280;16331;52.528;13.342;2022-10-15T00:16:51;159742.00;;;14.69;100.00
29331;BME280;16331;52.528;13.342;2022-10-15T00:19:17;159739.28;;;14.68;100.00
29331;BME280;16331;52.528;13.342;2022-10-15T00:21:43;159733.75;;;14.66;100.00
29331;BME280;16331;52.528;13.342;2022-10-15T00:24:09;159695.22;;;14.52;100.00
29331;BME280;16331;52.528;13.342;2022-10-15T00:26:35;159660.75;;;14.39;100.00
29331;BME280;16331;52.528;13.342;2022-10-15T00:29:02;159653.91;;;14.36;100.00
29331;BME280;16331;52.528;13.342;2022-10-15T00:31:30;159619.44;;;14.24;100.00
29331;BME280;16331;52.528;13.342;2022-10-15T00:33:59;159618.03;;;14.23;100.00
29331;BME280;16331;52.528;13.342;2022-10-15T00:36:31;159615.31;;;14.22;100.00
29331;BME280;16331;52.528;13.342;2022-10-15T00:38:58;159634.59;;;14.29;100.00
29331;BME280;16331;52.528;13.342;2022-10-15T00:41:30;159634.59;;;14.29;100.00
29331;BME280;16331;52.528;13.342;2022-10-15T00:44:41;159655.28;;;14.37;100.00
29331;BME280;16331;52.528;13.342;2022-10-15T00:46:44;159626.34;;;14.26;100.00
29331;BME280;16331;52.528;13.342;2022-10-15T00:49:23;159648.38;;;14.34;100.00
29331;BME280;16331;52.528;13.342;2022-10-15T00:52:10;159626.34;;;14.26;100.00
29331;BME280;16331;52.528;13.342;2022-10-15T00:54:41;159620.88;;;14.24;100.00
29331;BME280;16331;52.528;13.342;2022-10-15T00:57:09;159619.44;;;14.24;100.00
29331;BME280;16331;52.528;13.342;2022-10-15T00:59:40;159611.19;;;14.21;100.00
29331;BME280;16331;52.528;13.342;2022-10-15T01:02:07;159582.25;;;14.10;100.00
29331;BME280;16331;52.528;13.342;2022-10-15T01:04:34;159565.75;;;14.04;100.00
29331;BME280;16331;52.528;13.342;2022-10-15T01:07:00;159554.78;;;14.00;100.00
29331;BME280;16331;52.528;13.342;2022-10-15T01:09:26;159553.38;;;14.00;100.00
29331;BME280;16331;52.528;13.342;2022-10-15T01:11:54;159528.63;;;13.91;100.00
29331;BME280;16331;52.528;13.342;2022-10-15T01:14:33;159543.72;;;13.96;100.00
29331;BME280;16331;52.528;13.342;2022-10-15T01:22:37;159541.00;;;13.95;100.00
29331;BME280;16331;52.528;13.342;2022-10-15T01:25:24;159546.47;;;13.97;100.00
29331;BME280;16331;52.528;13.342;2022-10-15T01:30:53;159543.72;;;13.96;100.00
29331;BME280;16331;52.528;13.342;2022-10-15T01:33:42;159558.91;;;14.02;100.00
29331;BME280;16331;52.528;13.342;2022-10-15T01:36:28;159554.78;;;14.00;100.00
29331;BME280;16331;52.528;13.342;2022-10-15T01:39:02;159571.28;;;14.06;100.00
29331;BME280;16331;52.528;13.342;2022-10-15T01:44:35;159569.88;;;14.06;100.00
29331;BME280;16331;52.528;13.342;2022-10-15T01:47:13;159571.28;;;14.06;100.00
29331;BME280;16331;52.528;13.342;2022-10-15T01:49:43;159593.28;;;14.14;100.00
29331;BME280;16331;52.528;13.342;2022-10-15T01:52:19;159612.53;;;14.21;100.00
29331;BME280;16331;52.528;13.342;2022-10-15T01:54:49;159604.28;;;14.18;100.00
29331;BME280;16331;52.528;13.342;2022-10-15T01:57:18;159615.31;;;14.22;100.00
29331;BME280;16331;52.528;13.342;2022-10-15T01:59:45;159605.66;;;14.19;100.00
29331;BME280;16331;52.528;13.342;2022-10-15T02:02:12;159611.19;;;14.21;100.00
29331;BME280;16331;52.528;13.342;2022-10-15T02:04:39;159627.75;;;14.27;100.00
29331;BME280;16331;52.528;13.342;2022-10-15T02:07:19;159615.31;;;14.22;100.00
29331;BME280;16331;52.528;13.342;2022-10-15T02:10:07;159636.00;;;14.30;100.00
29331;BME280;16331;52.528;13.342;2022-10-15T02:12:51;159629.13;;;14.27;100.00
29331;BME280;16331;52.528;13.342;2022-10-15T02:20:57;159626.34;;;14.26;100.00
29331;BME280;16331;52.528;13.342;2022-10-15T02:23:44;159629.13;;;14.27;100.00
29331;BME280;16331;52.528;13.342;2022-10-15T02:26:13;159645.63;;;14.33;100.00
29331;BME280;16331;52.528;13.342;2022-10-15T02:28:43;159637.38;;;14.30;100.00
29331;BME280;16331;52.528;13.342;2022-10-15T02:31:12;159631.88;;;14.28;100.00
29331;BME280;16331;52.528;13.342;2022-10-15T02:33:39;159627.75;;;14.27;100.00
29331;BME280;16331;52.528;13.342;2022-10-15T02:36:05;159664.94;;;14.40;100.00
29331;BME280;16331;52.528;13.342;2022-10-15T02:38:32;159667.66;;;14.41;100.00
29331;BME280;16331;52.528;13.342;2022-10-15T02:41:00;159673.19;;;14.43;100.00
29331;BME280;16331;52.528;13.342;2022-10-15T02:43:26;159713.13;;;14.58;100.00
29331;BME280;16331;52.528;13.342;2022-10-15T02:45:53;159670.41;;;14.42;100.00
29331;BME280;16331;52.528;13.342;2022-10-15T02:48:19;159634.59;;;14.29;100.00
29331;BME280;16331;52.528;13.342;2022-10-15T02:50:45;159641.50;;;14.32;100.00
29331;BME280;16331;52.528;13.342;2022-10-15T02:53:11;159691.09;;;14.50;100.00
29331;BME280;16331;52.528;13.342;2022-10-15T02:55:37;159660.75;;;14.39;100.00
29331;BME280;16331;52.528;13.342;2022-10-15T02:58:03;159700.69;;;14.53;100.00
29331;BME280;16331;52.528;13.342;2022-10-15T03:00:29;159725.50;;;14.63;100.00
29331;BME280;16331;52.528;13.342;2022-10-15T03:02:55;159722.72;;;14.62;100.00
29331;BME280;16331;52.528;13.342;2022-10-15T03:05:21;159714.47;;;14.59;100.00
29331;BME280;16331;52.528;13.342;2022-10-15T03:07:47;159728.22;;;14.64;100.00
29331;BME280;16331;52.528;13.342;2022-10-15T03:10:13;159677.31;;;14.45;100.00
29331;BME280;16331;52.528;13.342;2022-10-15T03:12:39;159664.94;;;14.40;100.00
29331;BME280;16331;52.528;13.342;2022-10-15T03:15:06;159651.16;;;14.35;100.00
29331;BME280;16331;52.528;13.342;2022-10-15T03:17:32;159645.63;;;14.33;100.00
29331;BME280;16331;52.528;13.342;2022-10-15T03:19:58;159658.03;;;14.38;100.00
29331;BME280;16331;52.528;13.342;2022-10-15T03:22:24;159642.91;;;14.32;100.00
29331;BME280;16331;52.528;13.342;2022-10-15T03:24:50;159697.94;;;14.52;100.00
29331;BME280;16331;52.528;13.342;2022-10-15T03:27:16;159692.44;;;14.50;100.00
29331;BME280;16331;52.528;13.342;2022-10-15T03:29:42;159704.81;;;14.55;100.00
29331;BME280;16331;52.528;13.342;2022-10-15T03:32:08;159702.06;;;14.54;100.00
29331;BME280;16331;52.528;13.342;2022-10-15T03:34:34;159664.94;;;14.40;100.00
29331;BME280;16331;52.528;13.342;2022-10-15T03:37:00;159673.19;;;14.43;100.00
29331;BME280;16331;52.528;13.342;2022-10-15T03:39:26;159680.03;;;14.46;100.00
29331;BME280;16331;52.528;13.342;2022-10-15T03:41:53;159636.00;;;14.30;100.00
29331;BME280;16331;52.528;13.342;2022-10-15T03:44:19;159618.03;;;14.23;100.00
29331;BME280;16331;52.528;13.342;2022-10-15T03:46:45;159630.47;;;14.28;100.00
29331;BME280;16331;52.528;13.342;2022-10-15T03:49:11;159673.19;;;14.43;100.00
29331;BME280;16331;52.528;13.342;2022-10-15T03:51:37;159637.38;;;14.30;100.00
29331;BME280;16331;52.528;13.342;2022-10-15T03:54:03;159636.00;;;14.30;100.00
29331;BME280;16331;52.528;13.342;2022-10-15T03:56:30;159656.63;;;14.37;100.00
29331;BME280;16331;52.528;13.342;2022-10-15T03:58:56;159673.19;;;14.43;100.00
29331;BME280;16331;52.528;13.342;2022-10-15T04:01:22;159634.59;;;14.29;100.00
29331;BME280;16331;52.528;13.342;2022-10-15T04:03:51;159638.72;;;14.31;100.00
29331;BME280;16331;52.528;13.342;2022-10-15T04:06:18;159669.06;;;14.42;100.00
29331;BME280;16331;52.528;13.342;2022-10-15T04:08:44;159707.59;;;14.56;100.00
29331;BME280;16331;52.528;13.342;2022-10-15T04:11:10;159692.44;;;14.50;100.00
29331;BME280;16331;52.528;13.342;2022-10-15T04:13:36;159673.19;;;14.43;100.00
29331;BME280;16331;52.528;13.342;2022-10-15T04:16:05;159696.56;;;14.52;100.00
29331;BME280;16331;52.528;13.342;2022-10-15T04:18:32;159673.19;;;14.43;100.00
29331;BME280;16331;52.528;13.342;2022-10-15T04:20:59;159656.63;;;14.37;100.00
29331;BME280;16331;52.528;13.342;2022-10-15T04:23:25;159626.34;;;14.26;100.00
29331;BME280;16331;52.528;13.342;2022-10-15T04:25:51;159613.91;;;14.22;100.00
29331;BME280;16331;52.528;13.342;2022-10-15T04:28:17;159618.03;;;14.23;100.00
29331;BME280;16331;52.528;13.342;2022-10-15T04:30:43;159642.91;;;14.32;100.00
29331;BME280;16331;52.528;13.342;2022-10-15T04:33:09;159629.13;;;14.27;100.00
29331;BME280;16331;52.528;13.342;2022-10-15T04:35:35;159593.28;;;14.14;100.00
29331;BME280;16331;52.528;13.342;2022-10-15T04:38:01;159623.63;;;14.25;100.00
29331;BME280;16331;52.528;13.342;2022-10-15T04:40:27;159638.72;;;14.31;100.00
29331;BME280;16331;52.528;13.342;2022-10-15T04:42:53;159629.13;;;14.27;100.00
29331;BME280;16331;52.528;13.342;2022-10-15T04:45:19;159620.88;;;14.24;100.00
29331;BME280;16331;52.528;13.342;2022-10-15T04:47:46;159601.53;;;14.17;100.00
29331;BME280;16331;52.528;13.342;2022-10-15T04:50:12;159637.38;;;14.30;100.00
29331;BME280;16331;52.528;13.342;2022-10-15T04:52:38;159637.38;;;14.30;100.00
29331;BME280;16331;52.528;13.342;2022-10-15T04:55:04;159631.88;;;14.28;100.00
29331;BME280;16331;52.528;13.342;2022-10-15T04:57:31;159605.66;;;14.19;100.00
29331;BME280;16331;52.528;13.342;2022-10-15T04:59:57;159631.88;;;14.28;100.00
29331;BME280;16331;52.528;13.342;2022-10-15T05:02:23;159671.78;;;14.43;100.00
29331;BME280;16331;52.528;13.342;2022-10-15T05:04:49;159647.03;;;14.34;100.00
29331;BME280;16331;52.528;13.342;2022-10-15T05:07:16;159669.06;;;14.42;100.00
29331;BME280;16331;52.528;13.342;2022-10-15T05:09:42;159660.75;;;14.39;100.00
29331;BME280;16331;52.528;13.342;2022-10-15T05:12:08;159655.28;;;14.37;100.00
29331;BME280;16331;52.528;13.342;2022-10-15T05:14:34;159642.91;;;14.32;100.00
29331;BME280;16331;52.528;13.342;2022-10-15T05:17:00;159675.91;;;14.44;100.00
29331;BME280;16331;52.528;13.342;2022-10-15T05:19:26;159652.50;;;14.36;100.00
29331;BME280;16331;52.528;13.342;2022-10-15T05:21:52;159637.38;;;14.30;100.00
29331;BME280;16331;52.528;13.342;2022-10-15T05:24:18;159673.19;;;14.43;100.00
29331;BME280;16331;52.528;13.342;2022-10-15T05:26:44;159634.59;;;14.29;100.00
29331;BME280;16331;52.528;13.342;2022-10-15T05:29:10;159604.28;;;14.18;100.00
29331;BME280;16331;52.528;13.342;2022-10-15T05:31:36;159597.41;;;14.16;100.00
29331;BME280;16331;52.528;13.342;2022-10-15T05:34:06;159576.78;;;14.08;100.00
29331;BME280;16331;52.528;13.342;2022-10-15T05:36:33;159587.78;;;14.12;100.00
29331;BME280;16331;52.528;13.342;2022-10-15T05:39:00;159596.03;;;14.15;100.00
29331;BME280;16331;52.528;13.342;2022-10-15T05:41:28;159612.53;;;14.21;100.00
29331;BME280;16331;52.528;13.342;2022-10-15T05:43:56;159591.91;;;14.14;100.00
29331;BME280;16331;52.528;13.342;2022-10-15T05:46:22;159585.03;;;14.11;100.00
29331;BME280;16331;52.528;13.342;2022-10-15T05:48:50;159583.66;;;14.11;100.00
29331;BME280;16331;52.528;13.342;2022-10-15T05:51:17;159579.53;;;14.09;100.00
29331;BME280;16331;52.528;13.342;2022-10-15T05:53:43;159593.28;;;14.14;100.00
29331;BME280;16331;52.528;13.342;2022-10-15T05:56:12;159586.38;;;14.12;100.00
29331;BME280;16331;52.528;13.342;2022-10-15T05:58:38;159593.28;;;14.14;100.00
29331;BME280;16331;52.528;13.342;2022-10-15T06:01:08;159590.50;;;14.13;100.00
29331;BME280;16331;52.528;13.342;2022-10-15T06:03:35;159580.91;;;14.10;100.00
29331;BME280;16331;52.528;13.342;2022-10-15T06:06:01;159607.06;;;14.19;100.00
29331;BME280;16331;52.528;13.342;2022-10-15T06:08:28;159587.78;;;14.12;100.00
29331;BME280;16331;52.528;13.342;2022-10-15T06:10:55;159574.00;;;14.07;100.00
29331;BME280;16331;52.528;13.342;2022-10-15T06:13:21;159568.47;;;14.05;100.00
29331;BME280;16331;52.528;13.342;2022-10-15T06:15:47;159554.78;;;14.00;100.00
29331;BME280;16331;52.528;13.342;2022-10-15T06:18:14;159578.13;;;14.09;100.00
29331;BME280;16331;52.528;13.342;2022-10-15T06:20:43;159590.50;;;14.13;100.00
29331;BME280;16331;52.528;13.342;2022-10-15T06:23:10;159565.75;;;14.04;100.00
29331;BME280;16331;52.528;13.342;2022-10-15T06:25:37;159580.91;;;14.10;100.00
29331;BME280;16331;52.528;13.342;2022-10-15T06:28:05;159583.66;;;14.11;100.00
29331;BME280;16331;52.528;13.342;2022-10-15T06:30:34;159593.28;;;14.14;100.00
29331;BME280;16331;52.528;13.342;2022-10-15T06:33:00;159619.44;;;14.24;100.00
29331;BME280;16331;52.528;13.342;2022-10-15T06:35:27;159636.00;;;14.30;100.00
29331;BME280;16331;52.528;13.342;2022-10-15T06:38:02;159659.41;;;14.38;100.00
29331;BME280;16331;52.528;13.342;2022-10-15T06:40:29;159691.09;;;14.50;100.00
29331;BME280;16331;52.528;13.342;2022-10-15T06:43:07;159742.00;;;14.69;100.00
29331;BME280;16331;52.528;13.342;2022-10-15T06:45:35;159799.84;;;14.90;100.00
29331;BME280;16331;52.528;13.342;2022-10-15T06:48:03;159870.09;;;15.15;100.00
29331;BME280;16331;52.528;13.342;2022-10-15T06:50:31;159897.66;;;15.25;100.00
29331;BME280;16331;52.528;13.342;2022-10-15T06:52:57;159927.97;;;15.36;100.00
29331;BME280;16331;52.528;13.342;2022-10-15T06:55:23;159914.19;;;15.31;100.00
29331;BME280;16331;52.528;13.342;2022-10-15T06:57:49;159882.50;;;15.20;100.00
29331;BME280;16331;52.528;13.342;2022-10-15T07:00:15;159934.88;;;15.39;100.00
29331;BME280;16331;52.528;13.342;2022-10-15T07:02:42;160003.78;;;15.64;100.00
29331;BME280;16331;52.528;13.342;2022-10-15T07:05:08;159992.78;;;15.60;100.00
29331;BME280;16331;52.528;13.342;2022-10-15T07:07:34;160021.69;;;15.70;100.00
29331;BME280;16331;52.528;13.342;2022-10-15T07:10:00;160025.81;;;15.72;100.00
29331;BME280;16331;52.528;13.342;2022-10-15T07:12:26;160014.81;;;15.68;100.00
29331;BME280;16331;52.528;13.342;2022-10-15T07:14:52;159990.03;;;15.59;100.00
29331;BME280;16331;52.528;13.342;2022-10-15T07:17:18;160018.94;;;15.69;100.00
29331;BME280;16331;52.528;13.342;2022-10-15T07:19:44;160028.59;;;15.73;100.00
29331;BME280;16331;52.528;13.342;2022-10-15T07:22:10;159992.78;;;15.60;100.00
29331;BME280;16331;52.528;13.342;2022-10-15T07:24:37;160012.09;;;15.67;100.00
29331;BME280;16331;52.528;13.342;2022-10-15T07:27:03;160032.75;;;15.74;100.00
29331;BME280;16331;52.528;13.342;2022-10-15T07:29:29;160025.81;;;15.72;100.00
29331;BME280;16331;52.528;13.342;2022-10-15T07:31:56;160035.47;;;15.75;100.00
29331;BME280;16331;52.528;13.342;2022-10-15T07:34:22;160075.44;;;15.90;100.00
29331;BME280;16331;52.528;13.342;2022-10-15T07:36:48;160108.56;;;16.02;100.00
29331;BME280;16331;52.528;13.342;2022-10-15T07:39:14;160144.38;;;16.15;100.00
29331;BME280;16331;52.528;13.342;2022-10-15T07:41:43;160257.53;;;16.56;100.00
29331;BME280;16331;52.528;13.342;2022-10-15T07:44:10;160315.47;;;16.77;100.00
29331;BME280;16331;52.528;13.342;2022-10-15T07:46:37;160360.97;;;16.94;100.00
29331;BME280;16331;52.528;13.342;2022-10-15T07:49:03;160354.09;;;16.91;100.00
29331;BME280;16331;52.528;13.342;2022-10-15T07:51:29;160329.22;;;16.82;100.00
29331;BME280;16331;52.528;13.342;2022-10-15T07:53:55;160405.09;;;17.10;100.00
29331;BME280;16331;52.528;13.342;2022-10-15T07:56:21;160384.44;;;17.02;100.00
29331;BME280;16331;52.528;13.342;2022-10-15T07:58:47;160420.31;;;17.15;100.00
29331;BME280;16331;52.528;13.342;2022-10-15T08:01:18;160423.06;;;17.16;100.00
29331;BME280;16331;52.528;13.342;2022-10-15T08:03:44;160442.38;;;17.23;100.00
29331;BME280;16331;52.528;13.342;2022-10-15T08:06:11;160493.44;;;17.42;100.00
29331;BME280;16331;52.528;13.342;2022-10-15T08:08:37;160516.97;;;17.51;100.00
29331;BME280;16331;52.528;13.342;2022-10-15T08:11:11;160552.88;;;17.64;100.00
29331;BME280;16331;52.528;13.342;2022-10-15T08:13:38;160574.94;;;17.72;100.00
29331;BME280;16331;52.528;13.342;2022-10-15T08:16:07;160594.25;;;17.79;100.00
29331;BME280;16331;52.528;13.342;2022-10-15T08:18:34;160602.53;;;17.82;100.00
29331;BME280;16331;52.528;13.342;2022-10-15T08:21:01;160666.06;;;18.05;100.00
29331;BME280;16331;52.528;13.342;2022-10-15T08:23:27;160703.31;;;18.18;100.00
29331;BME280;16331;52.528;13.342;2022-10-15T08:25:53;160784.91;;;18.48;100.00
29331;BME280;16331;52.528;13.342;2022-10-15T08:28:19;160768.34;;;18.42;100.00
29331;BME280;16331;52.528;13.342;2022-10-15T08:30:45;160797.31;;;18.52;100.00
29331;BME280;16331;52.528;13.342;2022-10-15T08:33:12;160789.03;;;18.49;100.00
29331;BME280;16331;52.528;13.342;2022-10-15T08:35:41;160845.66;;;18.70;100.00
29331;BME280;16331;52.528;13.342;2022-10-15T08:38:09;160784.91;;;18.48;100.00
29331;BME280;16331;52.528;13.342;2022-10-15T08:40:36;160824.97;;;18.62;100.00
29331;BME280;16331;52.528;13.342;2022-10-15T08:43:02;160849.81;;;18.71;100.00
29331;BME280;16331;52.528;13.342;2022-10-15T08:45:41;160836.00;;;18.66;100.00
29331;BME280;16331;52.528;13.342;2022-10-15T08:48:17;160892.69;;;18.87;100.00
29331;BME280;16331;52.528;13.342;2022-10-15T08:51:01;160848.47;;;18.71;100.00
29331;BME280;16331;52.528;13.342;2022-10-15T08:53:28;160769.69;;;18.42;100.00
29331;BME280;16331;52.528;13.342;2022-10-15T08:56:00;160782.16;;;18.47;100.00
29331;BME280;16331;52.528;13.342;2022-10-15T08:58:45;160842.94;;;18.69;100.00
29331;BME280;16331;52.528;13.342;2022-10-15T09:01:35;160961.78;;;19.12;100.00
29331;BME280;16331;52.528;13.342;2022-10-15T09:04:13;160952.09;;;19.09;100.00
29331;BME280;16331;52.528;13.342;2022-10-15T09:06:44;161014.34;;;19.31;100.00
29331;BME280;16331;52.528;13.342;2022-10-15T09:14:45;161104.25;;;19.64;100.00
29331;BME280;16331;52.528;13.342;2022-10-15T09:17:24;161124.97;;;19.71;100.00
29331;BME280;16331;52.528;13.342;2022-10-15T09:19:56;161118.00;;;19.69;100.00
29331;BME280;16331;52.528;13.342;2022-10-15T09:22:27;161122.16;;;19.70;100.00
29331;BME280;16331;52.528;13.342;2022-10-15T09:24:54;161124.97;;;19.71;100.00
29331;BME280;16331;52.528;13.342;2022-10-15T09:27:33;161093.16;;;19.60;100.00
29331;BME280;16331;52.528;13.342;2022-10-15T09:30:12;160979.75;;;19.19;100.00
29331;BME280;16331;52.528;13.342;2022-10-15T09:33:07;160917.53;;;18.96;100.00
29331;BME280;16331;52.528;13.342;2022-10-15T09:35:50;161024.03;;;19.35;100.00
29331;BME280;16331;52.528;13.342;2022-10-15T09:41:22;161042.00;;;19.41;100.00
29331;BME280;16331;52.528;13.342;2022-10-15T09:43:52;160999.06;;;19.26;100.00
29331;BME280;16331;52.528;13.342;2022-10-15T09:46:21;161086.25;;;19.57;100.00
29331;BME280;16331;52.528;13.342;2022-10-15T09:49:05;160992.19;;;19.23;100.00
29331;BME280;16331;52.528;13.342;2022-10-15T09:51:54;161153.97;;;19.82;100.00
29331;BME280;16331;52.528;13.342;2022-10-15T09:54:41;161205.19;;;20.00;100.00
29331;BME280;16331;52.528;13.342;2022-10-15T09:57:11;161166.41;;;19.86;100.00
29331;BME280;16331;52.528;13.342;2022-10-15T09:59:52;161249.50;;;20.17;100.00
29331;BME280;16331;52.528;13.342;2022-10-15T10:02:20;161232.81;;;20.10;100.00
29331;BME280;16331;52.528;13.342;2022-10-15T10:04:46;161216.22;;;20.04;100.00
29331;BME280;16331;52.528;13.342;2022-10-15T10:07:36;161178.91;;;19.91;100.00
29331;BME280;16331;52.528;13.342;2022-10-15T10:10:24;161277.13;;;20.27;100.00
29331;BME280;16331;52.528;13.342;2022-10-15T10:12:55;161241.16;;;20.13;100.00
29331;BME280;16331;52.528;13.342;2022-10-15T10:17:55;161155.38;;;19.82;100.00
29331;BME280;16331;52.528;13.342;2022-10-15T10:20:25;161155.38;;;19.82;100.00
29331;BME280;16331;52.528;13.342;2022-10-15T10:22:57;161260.53;;;20.21;100.00
29331;BME280;16331;52.528;13.342;2022-10-15T10:33:16;161437.66;;;20.85;100.00
29331;BME280;16331;52.528;13.342;2022-10-15T10:35:46;161408.63;;;20.74;100.00
29331;BME280;16331;52.528;13.342;2022-10-15T10:38:34;161494.47;;;21.05;100.00
29331;BME280;16331;52.528;13.342;2022-10-15T10:41:04;161385.09;;;20.66;100.00
29331;BME280;16331;52.528;13.342;2022-10-15T10:43:34;161445.97;;;20.88;100.00
29331;BME280;16331;52.528;13.342;2022-10-15T10:46:04;161450.13;;;20.89;100.00
29331;BME280;16331;52.528;13.342;2022-10-15T10:48:41;161472.31;;;20.97;100.00
29331;BME280;16331;52.528;13.342;2022-10-15T10:51:11;161482.03;;;21.01;100.00
29331;BME280;16331;52.528;13.342;2022-10-15T10:53:46;161454.28;;;20.91;100.00
29331;BME280;16331;52.528;13.342;2022-10-15T10:56:13;161447.38;;;20.88;100.00
29331;BME280;16331;52.528;13.342;2022-10-15T10:58:40;161551.22;;;21.26;100.00
29331;BME280;16331;52.528;13.342;2022-10-15T11:01:11;161483.44;;;21.01;100.00
29331;BME280;16331;52.528;13.342;2022-10-15T11:03:43;161563.69;;;21.30;100.00
29331;BME280;16331;52.528;13.342;2022-10-15T11:09:18;161723.00;;;21.88;100.00
29331;BME280;16331;52.528;13.342;2022-10-15T11:17:48;161711.94;;;21.84;100.00
29331;BME280;16331;52.528;13.342;2022-10-15T11:20:27;161644.00;;;21.60;100.00
29331;BME280;16331;52.528;13.342;2022-10-15T11:34:24;161660.66;;;21.66;100.00
29331;BME280;16331;52.528;13.342;2022-10-15T11:39:54;161504.16;;;21.09;100.00
29331;BME280;16331;52.528;13.342;2022-10-15T11:42:39;161534.63;;;21.20;100.00
29331;BME280;16331;52.528;13.342;2022-10-15T11:50:51;161476.47;;;20.99;100.00
29331;BME280;16331;52.528;13.342;2022-10-15T11:53:26;161354.66;;;20.55;100.00
29331;BME280;16331;52.528;13.342;2022-10-15T11:56:13;161255.00;;;20.19;100.00
29331;BME280;16331;52.528;13.342;2022-10-15T11:58:52;161198.25;;;19.98;100.00
29331;BME280;16331;52.528;13.342;2022-10-15T12:01:32;161156.78;;;19.83;100.00
29331;BME280;16331;52.528;13.342;2022-10-15T12:04:10;161192.69;;;19.96;100.00
29331;BME280;16331;52.528;13.342;2022-10-15T12:06:46;161183.06;;;19.92;100.00
29331;BME280;16331;52.528;13.342;2022-10-15T12:09:19;161293.78;;;20.33;100.00
29331;BME280;16331;52.528;13.342;2022-10-15T12:12:20;161578.94;;;21.36;100.00
29331;BME280;16331;52.528;13.342;2022-10-15T12:20:15;161808.94;;;22.19;100.00
29331;BME280;16331;52.528;13.342;2022-10-15T12:30:34;161518.03;;;21.14;100.00
29331;BME280;16331;52.528;13.342;2022-10-15T12:33:18;161522.16;;;21.15;100.00
29331;BME280;16331;52.528;13.342;2022-10-15T12:36:20;161498.63;;;21.07;100.00
29331;BME280;16331;52.528;13.342;2022-10-15T12:39:22;161584.47;;;21.38;100.00
29331;BME280;16331;52.528;13.342;2022-10-15T12:42:30;161468.13;;;20.96;100.00
29331;BME280;16331;52.528;13.342;2022-10-15T12:44:58;161508.31;;;21.10;100.00
29331;BME280;16331;52.528;13.342;2022-10-15T12:47:51;161559.53;;;21.29;100.00
29331;BME280;16331;52.528;13.342;2022-10-15T12:50:26;161506.91;;;21.10;100.00
29331;BME280;16331;52.528;13.342;2022-10-15T12:53:01;161465.38;;;20.95;100.00
29331;BME280;16331;52.528;13.342;2022-10-15T12:55:33;161328.34;;;20.45;100.00
29331;BME280;16331;52.528;13.342;2022-10-15T13:00:45;161415.53;;;20.77;100.00
29331;BME280;16331;52.528;13.342;2022-10-15T13:03:16;161409.97;;;20.75;100.00
29331;BME280;16331;52.528;13.342;2022-10-15T13:05:42;161335.25;;;20.48;100.00
29331;BME280;16331;52.528;13.342;2022-10-15T13:08:22;161264.69;;;20.22;100.00
29331;BME280;16331;52.528;13.342;2022-10-15T13:10:53;161196.91;;;19.97;100.00
29331;BME280;16331;52.528;13.342;2022-10-15T13:13:24;161207.94;;;20.01;100.00
29331;BME280;16331;52.528;13.342;2022-10-15T13:16:05;161272.97;;;20.25;100.00
29331;BME280;16331;52.528;13.342;2022-10-15T13:18:32;161293.78;;;20.33;100.00
29331;BME280;16331;52.528;13.342;2022-10-15T13:20:59;161238.34;;;20.12;100.00
29331;BME280;16331;52.528;13.342;2022-10-15T13:23:33;161358.78;;;20.56;100.00
29331;BME280;16331;52.528;13.342;2022-10-15T13:26:19;161440.41;;;20.86;100.00
29331;BME280;16331;52.528;13.342;2022-10-15T13:28:47;161495.88;;;21.06;100.00
29331;BME280;16331;52.528;13.342;2022-10-15T13:33:46;161889.31;;;22.48;100.00
29331;BME280;16331;52.528;13.342;2022-10-15T13:38:56;161790.91;;;22.13;100.00
29331;BME280;16331;52.528;13.342;2022-10-15T13:41:28;161551.22;;;21.26;100.00
29331;BME280;16331;52.528;13.342;2022-10-15T13:43:55;161387.84;;;20.67;100.00
29331;BME280;16331;52.528;13.342;2022-10-15T13:46:31;161303.41;;;20.36;100.00
29331;BME280;16331;52.528;13.342;2022-10-15T13:48:58;161396.13;;;20.70;100.00
29331;BME280;16331;52.528;13.342;2022-10-15T13:51:33;161360.19;;;20.57;100.00
29331;BME280;16331;52.528;13.342;2022-10-15T13:54:00;161329.69;;;20.46;100.00
29331;BME280;16331;52.528;13.342;2022-10-15T13:56:29;161307.56;;;20.38;100.00
29331;BME280;16331;52.528;13.342;2022-10-15T13:58:58;161429.38;;;20.82;100.00
29331;BME280;16331;52.528;13.342;2022-10-15T14:01:26;161358.78;;;20.56;100.00
29331;BME280;16331;52.528;13.342;2022-10-15T14:03:53;161306.22;;;20.37;100.00
29331;BME280;16331;52.528;13.342;2022-10-15T14:06:26;161259.16;;;20.20;100.00
29331;BME280;16331;52.528;13.342;2022-10-15T14:08:57;161310.38;;;20.39;100.00
29331;BME280;16331;52.528;13.342;2022-10-15T14:11:25;161344.94;;;20.51;100.00
29331;BME280;16331;52.528;13.342;2022-10-15T14:13:57;161235.59;;;20.11;100.00